createdAt,value
2022-09-12T00:02:16.762Z,17.05
2022-09-12T00:04:46.033Z,17.52
2022-09-12T00:07:12.521Z,15.02
2022-09-12T00:09:39.723Z,11.20
2022-09-12T00:12:06.734Z,12.25
2022-09-12T00:14:33.519Z,11.30
2022-09-12T00:17:00.730Z,10.50
2022-09-12T00:19:28.745Z,7.90
2022-09-12T00:21:55.946Z,14.03
2022-09-12T00:24:22.817Z,10.73
2022-09-12T00:26:49.397Z,10.80
2022-09-12T00:29:18.624Z,12.10
2022-09-12T00:31:45.573Z,10.15
2022-09-12T00:34:12.740Z,11.93
2022-09-12T00:36:41.271Z,9.98
2022-09-12T00:39:09.162Z,13.15
2022-09-12T00:41:38.480Z,13.27
2022-09-12T00:44:11.041Z,13.50
2022-09-12T00:46:59.199Z,14.33
2022-09-12T00:49:35.011Z,12.63
2022-09-12T00:52:10.724Z,12.10
2022-09-12T00:54:57.730Z,11.98
2022-09-12T00:57:29.842Z,12.88
2022-09-12T01:00:02.087Z,11.27
2022-09-12T01:02:28.756Z,11.10
2022-09-12T01:04:55.993Z,12.43
2022-09-12T01:07:22.586Z,12.40
2022-09-12T01:09:49.385Z,11.40
2022-09-12T01:12:16.832Z,10.47
2022-09-12T01:14:43.359Z,12.02
2022-09-12T01:17:16.810Z,11.88
2022-09-12T01:19:43.249Z,11.57
2022-09-12T01:22:47.098Z,12.40
2022-09-12T01:25:33.707Z,11.30
2022-09-12T01:28:34.813Z,11.20
2022-09-12T01:31:13.771Z,12.27
2022-09-12T01:33:55.970Z,13.73
2022-09-12T01:36:38.368Z,12.80
2022-09-12T01:39:11.775Z,11.07
2022-09-12T01:42:21.575Z,14.77
2022-09-12T01:45:14.616Z,14.25
2022-09-12T01:47:47.474Z,14.82
2022-09-12T01:50:25.026Z,16.83
2022-09-12T01:52:57.248Z,16.10
2022-09-12T01:55:29.743Z,11.95
2022-09-12T01:58:13.655Z,13.23
2022-09-12T02:00:48.278Z,15.68
2022-09-12T02:03:20.540Z,18.05
2022-09-12T02:05:59.637Z,21.13
2022-09-12T02:08:29.482Z,16.90
2022-09-12T02:11:11.297Z,13.68
2022-09-12T02:13:45.584Z,14.77
2022-09-12T02:16:21.215Z,19.08
2022-09-12T02:18:55.722Z,14.30
2022-09-12T02:21:24.725Z,13.18
2022-09-12T02:36:14.552Z,12.73
2022-09-12T02:38:47.090Z,12.40
2022-09-12T02:41:19.290Z,13.15
2022-09-12T02:43:46.781Z,16.20
2022-09-12T02:46:21.290Z,16.58
2022-09-12T02:48:47.827Z,14.90
2022-09-12T02:51:14.891Z,12.38
2022-09-12T02:53:42.076Z,14.45
2022-09-12T02:56:14.364Z,16.88
2022-09-12T02:58:41.160Z,13.13
2022-09-12T03:01:17.387Z,13.93
2022-09-12T03:04:08.714Z,14.00
2022-09-12T03:06:57.937Z,14.23
2022-09-12T03:09:43.723Z,12.82
2022-09-12T03:12:30.863Z,12.90
2022-09-12T03:15:07.284Z,28.67
2022-09-12T03:18:14.732Z,18.05
2022-09-12T03:20:53.670Z,20.92
2022-09-12T03:23:30.758Z,16.35
2022-09-12T03:26:03.131Z,12.18
2022-09-12T03:28:31.164Z,15.17
2022-09-12T03:30:58.332Z,14.85
2022-09-12T03:33:26.801Z,11.60
2022-09-12T03:35:53.865Z,11.45
2022-09-12T03:38:20.409Z,12.93
2022-09-12T03:40:50.310Z,17.20
2022-09-12T03:43:19.481Z,13.35
2022-09-12T03:45:52.204Z,11.68
2022-09-12T03:48:18.795Z,13.52
2022-09-12T03:50:45.510Z,10.65
2022-09-12T03:53:16.547Z,10.97
2022-09-12T03:55:43.776Z,11.25
2022-09-12T03:58:10.256Z,12.77
2022-09-12T04:00:38.823Z,12.27
2022-09-12T04:03:05.325Z,10.93
2022-09-12T04:21:30.037Z,11.88
2022-09-12T04:23:56.871Z,12.48
2022-09-12T04:26:23.738Z,16.23
2022-09-12T04:28:54.987Z,12.40
2022-09-12T04:31:22.738Z,18.60
2022-09-12T04:33:57.332Z,15.07
2022-09-12T04:36:25.244Z,14.20
2022-09-12T04:38:52.205Z,15.80
2022-09-12T04:41:24.468Z,17.38
2022-09-12T04:43:58.259Z,15.02
2022-09-12T04:46:26.426Z,18.98
2022-09-12T04:48:56.633Z,22.13
2022-09-12T04:51:29.631Z,15.97
2022-09-12T04:53:59.052Z,16.88
2022-09-12T04:56:28.629Z,20.15
2022-09-12T04:58:58.706Z,20.73
2022-09-12T05:01:29.773Z,16.00
2022-09-12T05:03:57.754Z,14.83
2022-09-12T05:06:30.099Z,18.75
2022-09-12T05:08:58.462Z,16.40
2022-09-12T05:11:46.723Z,16.15
2022-09-12T05:14:16.375Z,19.02
2022-09-12T05:16:48.661Z,18.00
2022-09-12T05:19:16.121Z,17.08
2022-09-12T05:21:42.820Z,23.17
2022-09-12T05:24:11.312Z,16.65
2022-09-12T05:26:37.979Z,19.92
2022-09-12T05:29:05.626Z,20.87
2022-09-12T05:31:32.266Z,21.45
2022-09-12T05:33:59.198Z,24.40
2022-09-12T05:36:29.290Z,21.52
2022-09-12T05:38:56.762Z,26.58
2022-09-12T05:41:25.682Z,25.03
2022-09-12T05:43:54.686Z,18.83
2022-09-12T05:46:23.467Z,23.60
2022-09-12T05:48:55.588Z,22.15
2022-09-12T05:51:26.765Z,23.13
2022-09-12T05:53:57.868Z,30.13
2022-09-12T05:56:27.388Z,23.90
2022-09-12T05:59:07.597Z,27.40
2022-09-12T06:01:35.384Z,25.13
2022-09-12T06:04:05.002Z,22.30
2022-09-12T06:06:32.898Z,25.60
2022-09-12T06:09:03.213Z,26.63
2022-09-12T06:11:33.351Z,24.95
2022-09-12T06:14:00.860Z,23.58
2022-09-12T06:16:30.341Z,25.83
2022-09-12T06:19:07.539Z,19.10
2022-09-12T06:21:38.113Z,26.60
2022-09-12T06:24:04.967Z,27.65
2022-09-12T06:26:31.693Z,32.22
2022-09-12T06:29:00.701Z,31.42
2022-09-12T06:31:31.465Z,32.87
2022-09-12T06:34:02.074Z,30.50
2022-09-12T06:36:31.588Z,25.85
2022-09-12T06:39:04.098Z,28.52
2022-09-12T06:41:33.911Z,29.15
2022-09-12T06:44:00.993Z,26.67
2022-09-12T06:46:28.395Z,34.83
2022-09-12T06:49:00.616Z,29.55
2022-09-12T06:51:28.821Z,39.53
2022-09-12T06:53:59.424Z,35.95
2022-09-12T06:56:27.906Z,32.13
2022-09-12T06:58:57.422Z,36.08
2022-09-12T07:01:26.690Z,28.95
2022-09-12T07:03:56.018Z,23.63
2022-09-12T07:06:29.829Z,30.40
2022-09-12T07:08:58.523Z,35.37
2022-09-12T07:11:30.468Z,32.28
2022-09-12T07:13:59.923Z,40.17
2022-09-12T07:16:26.899Z,37.00
2022-09-12T07:18:55.642Z,26.63
2022-09-12T07:21:22.870Z,36.03
2022-09-12T07:23:55.306Z,40.08
2022-09-12T07:26:21.996Z,36.53
2022-09-12T07:29:07.875Z,41.55
2022-09-12T07:31:42.928Z,37.97
2022-09-12T07:34:46.068Z,42.27
2022-09-12T07:37:12.561Z,43.45
2022-09-12T07:39:39.310Z,47.65
2022-09-12T08:22:25.602Z,39.40
2022-09-12T08:24:52.619Z,34.50
2022-09-12T08:27:19.433Z,34.80
2022-09-12T08:29:46.033Z,30.63
2022-09-12T08:32:12.556Z,42.13
2022-09-12T08:34:39.156Z,28.90
2022-09-12T08:37:05.884Z,36.42
2022-09-12T08:39:33.263Z,23.70
2022-09-12T08:42:07.078Z,31.02
2022-09-12T08:45:01.814Z,23.48
2022-09-12T08:47:40.653Z,26.53
2022-09-12T08:50:15.784Z,25.42
2022-09-12T08:53:02.479Z,19.75
2022-09-12T08:55:38.186Z,19.83
2022-09-12T08:58:17.558Z,24.55
2022-09-12T09:01:02.916Z,16.83
2022-09-12T09:04:17.649Z,21.90
2022-09-12T09:07:08.534Z,24.50
2022-09-12T09:10:19.739Z,22.23
2022-09-12T09:13:35.761Z,22.35
2022-09-12T09:16:16.247Z,26.90
2022-09-12T09:18:46.177Z,22.25
2022-09-12T09:21:24.980Z,18.98
2022-09-12T09:24:00.204Z,24.80
2022-09-12T09:26:33.711Z,18.92
2022-09-12T09:29:10.962Z,19.27
2022-09-12T09:31:42.417Z,21.20
2022-09-12T09:34:24.160Z,13.18
2022-09-12T09:36:55.941Z,13.48
2022-09-12T09:39:50.010Z,13.90
2022-09-12T09:42:50.933Z,17.87
2022-09-12T09:45:21.197Z,13.50
2022-09-12T09:48:01.648Z,11.50
2022-09-12T09:50:40.409Z,12.30
2022-09-12T09:53:22.439Z,13.23
2022-09-12T09:55:50.121Z,15.73
2022-09-12T09:58:35.724Z,17.77
2022-09-12T10:01:06.163Z,15.48
2022-09-12T10:03:40.202Z,16.25
2022-09-12T10:06:31.109Z,13.48
2022-09-12T10:09:07.489Z,14.17
2022-09-12T10:11:34.219Z,15.15
2022-09-12T10:14:01.456Z,12.13
2022-09-12T10:16:34.626Z,14.40
2022-09-12T10:19:03.467Z,12.68
2022-09-12T10:21:42.871Z,10.40
2022-09-12T10:24:30.670Z,14.30
2022-09-12T10:27:07.178Z,13.07
2022-09-12T10:29:43.949Z,11.75
2022-09-12T10:32:17.543Z,12.25
2022-09-12T10:34:45.939Z,12.63
2022-09-12T10:37:25.396Z,11.57
2022-09-12T10:39:59.009Z,9.27
2022-09-12T10:42:58.029Z,10.98
2022-09-12T10:45:33.215Z,10.00
2022-09-12T10:48:24.720Z,10.63
2022-09-12T10:50:51.919Z,9.95
2022-09-12T10:53:34.514Z,7.65
2022-09-12T10:56:10.201Z,11.90
2022-09-12T10:58:42.956Z,9.73
2022-09-12T11:01:44.445Z,11.40
2022-09-12T11:04:33.982Z,9.85
2022-09-12T11:07:34.220Z,8.07
2022-09-12T11:10:18.333Z,6.85
2022-09-12T11:12:49.802Z,8.48
2022-09-12T11:15:44.771Z,8.27
2022-09-12T11:18:37.459Z,5.88
2022-09-12T11:21:09.999Z,5.40
2022-09-12T11:23:57.529Z,7.15
2022-09-12T11:26:45.188Z,8.45
2022-09-12T11:29:46.940Z,5.70
2022-09-12T11:32:48.347Z,7.60
2022-09-12T11:35:28.044Z,5.03
2022-09-12T11:38:34.963Z,6.10
2022-09-12T11:41:08.342Z,4.97
2022-09-12T11:43:46.878Z,6.07
2022-09-12T11:46:43.586Z,5.90
2022-09-12T11:49:37.392Z,8.30
2022-09-12T11:52:11.015Z,5.40
2022-09-12T11:54:54.010Z,4.43
2022-09-12T11:57:37.816Z,3.50
2022-09-12T12:00:17.920Z,4.85
2022-09-12T12:03:14.753Z,4.10
2022-09-12T12:06:01.904Z,10.55
2022-09-12T12:08:31.210Z,5.18
2022-09-12T12:11:00.739Z,5.03
2022-09-12T12:13:31.188Z,4.88
2022-09-12T12:16:21.423Z,3.80
2022-09-12T12:18:57.118Z,4.28
2022-09-12T12:21:32.119Z,3.80
2022-09-12T12:24:25.898Z,3.17
2022-09-12T12:27:01.877Z,3.92
2022-09-12T12:29:44.314Z,4.32
2022-09-12T12:32:14.906Z,2.80
2022-09-12T12:34:45.752Z,2.90
2022-09-12T12:37:47.871Z,4.00
2022-09-12T12:40:25.673Z,3.08
2022-09-12T12:43:01.935Z,5.70
2022-09-12T12:45:28.373Z,2.70
2022-09-12T12:48:08.317Z,3.40
2022-09-12T12:50:35.314Z,3.23
2022-09-12T12:53:07.247Z,2.90
2022-09-12T12:55:39.194Z,3.00
2022-09-12T12:58:08.905Z,11.48
2022-09-12T13:00:40.039Z,4.38
2022-09-12T13:03:24.503Z,3.37
2022-09-12T13:05:57.907Z,4.63
2022-09-12T13:08:33.828Z,3.90
2022-09-12T13:11:07.790Z,3.40
2022-09-12T13:13:50.299Z,3.13
2022-09-12T13:16:52.207Z,3.73
2022-09-12T13:19:35.791Z,3.15
2022-09-12T13:22:06.616Z,7.00
2022-09-12T13:24:33.597Z,2.78
2022-09-12T13:27:00.746Z,10.10
2022-09-12T13:29:28.411Z,3.70
2022-09-12T13:31:59.370Z,2.83
2022-09-12T13:34:30.389Z,5.90
2022-09-12T13:37:32.397Z,3.95
2022-09-12T13:40:24.204Z,3.63
2022-09-12T13:43:14.928Z,3.60
2022-09-12T13:45:45.927Z,3.17
2022-09-12T13:48:22.184Z,3.40
2022-09-12T13:50:59.250Z,2.42
2022-09-12T13:53:29.885Z,5.40
2022-09-12T13:55:59.897Z,4.87
2022-09-12T13:58:29.361Z,5.85
2022-09-12T14:01:17.536Z,4.95
2022-09-12T14:04:15.478Z,2.30
2022-09-12T14:06:51.147Z,2.58
2022-09-12T14:09:29.948Z,4.97
2022-09-12T14:11:58.409Z,3.75
2022-09-12T14:14:34.305Z,3.97
2022-09-12T14:17:01.365Z,3.97
2022-09-12T14:19:29.248Z,3.17
2022-09-12T14:21:57.607Z,4.70
2022-09-12T14:24:24.669Z,2.60
2022-09-12T14:26:56.900Z,3.45
2022-09-12T14:29:25.521Z,2.50
2022-09-12T14:32:04.111Z,4.25
2022-09-12T14:34:31.296Z,2.63
2022-09-12T14:36:58.665Z,1.98
2022-09-12T14:39:38.052Z,3.30
2022-09-12T14:42:12.591Z,4.45
2022-09-12T14:44:39.495Z,6.35
2022-09-12T14:47:21.384Z,4.00
2022-09-12T14:49:50.261Z,2.38
2022-09-12T14:52:27.868Z,5.00
2022-09-12T14:55:18.311Z,2.85
2022-09-12T14:57:45.957Z,10.70
2022-09-12T15:00:21.230Z,2.43
2022-09-12T15:02:50.428Z,4.00
2022-09-12T15:05:20.286Z,2.90
2022-09-12T15:08:15.970Z,3.35
2022-09-12T15:10:42.575Z,3.65
2022-09-12T15:13:14.087Z,7.03
2022-09-12T15:15:43.945Z,5.57
2022-09-12T15:18:11.201Z,4.28
2022-09-12T15:20:39.752Z,7.80
2022-09-12T15:23:14.052Z,42.67
2022-09-12T15:25:41.289Z,7.00
2022-09-12T15:28:24.179Z,21.27
2022-09-12T15:30:53.070Z,16.50
2022-09-12T15:33:22.819Z,11.10
2022-09-12T15:35:50.031Z,6.28
2022-09-12T15:38:17.141Z,7.53
2022-09-12T15:40:46.292Z,12.93
2022-09-12T15:43:14.988Z,17.08
2022-09-12T15:45:43.389Z,6.47
2022-09-12T15:48:10.344Z,3.70
2022-09-12T15:50:37.308Z,2.53
2022-09-12T15:53:04.179Z,2.80
2022-09-12T15:55:32.590Z,4.75
2022-09-12T15:58:04.882Z,5.97
2022-09-12T16:00:33.855Z,2.63
2022-09-12T16:03:02.352Z,3.77
2022-09-12T16:05:29.646Z,4.32
2022-09-12T16:07:56.139Z,3.47
2022-09-12T16:10:26.871Z,1.98
2022-09-12T16:12:53.629Z,4.75
2022-09-12T16:15:22.940Z,2.37
2022-09-12T16:17:49.637Z,3.35
2022-09-12T16:20:16.489Z,13.70
2022-09-12T16:22:43.684Z,2.10
2022-09-12T16:25:10.364Z,2.28
2022-09-12T16:27:38.009Z,7.43
2022-09-12T16:30:06.487Z,8.35
2022-09-12T16:32:33.254Z,13.45
2022-09-12T16:35:00.059Z,4.32
2022-09-12T16:37:26.900Z,4.70
2022-09-12T16:39:53.753Z,2.13
2022-09-12T16:42:21.727Z,3.97
2022-09-12T16:44:48.568Z,15.52
2022-09-12T16:47:15.617Z,1.77
2022-09-12T16:49:42.232Z,2.13
2022-09-12T16:52:09.067Z,5.17
2022-09-12T16:54:38.760Z,2.10
2022-09-12T16:57:06.494Z,2.33
2022-09-12T16:59:33.054Z,2.13
2022-09-12T17:01:59.768Z,3.53
2022-09-12T17:04:26.342Z,2.17
2022-09-12T17:06:52.999Z,2.22
2022-09-12T17:09:19.800Z,4.57
2022-09-12T17:11:49.333Z,14.80
2022-09-12T17:14:16.155Z,3.17
2022-09-12T17:16:50.871Z,3.80
2022-09-12T17:19:26.415Z,10.52
2022-09-12T17:21:53.588Z,4.97
2022-09-12T17:24:20.758Z,4.70
2022-09-12T17:26:47.608Z,1.77
2022-09-12T17:29:14.755Z,2.77
2022-09-12T17:31:42.822Z,2.97
2022-09-12T17:34:14.231Z,4.32
2022-09-12T17:36:44.247Z,2.00
2022-09-12T17:39:11.947Z,3.33
2022-09-12T17:41:38.916Z,1.97
2022-09-12T17:44:07.526Z,4.03
2022-09-12T17:46:36.856Z,2.90
2022-09-12T17:49:13.949Z,1.65
2022-09-12T17:51:41.128Z,4.40
2022-09-12T17:54:11.786Z,1.77
2022-09-12T17:56:39.754Z,2.90
2022-09-12T17:59:08.647Z,4.00
2022-09-12T18:01:53.726Z,2.80
2022-09-12T18:04:20.379Z,4.10
2022-09-12T18:06:50.867Z,5.17
2022-09-12T18:09:22.096Z,2.83
2022-09-12T18:11:50.549Z,2.38
2022-09-12T18:14:18.468Z,6.28
2022-09-12T18:16:46.227Z,3.05
2022-09-12T18:19:14.265Z,4.00
2022-09-12T18:21:41.360Z,2.65
2022-09-12T18:24:09.510Z,2.28
2022-09-12T18:26:36.174Z,3.80
2022-09-12T18:29:02.915Z,3.58
2022-09-12T18:31:30.649Z,3.20
2022-09-12T18:34:00.306Z,2.80
2022-09-12T18:36:27.203Z,6.50
2022-09-12T18:38:53.723Z,3.13
2022-09-12T18:41:22.690Z,4.20
2022-09-12T18:43:54.607Z,4.90
2022-09-12T18:46:21.312Z,3.50
2022-09-12T18:48:47.886Z,3.28
2022-09-12T18:51:17.892Z,5.38
2022-09-12T18:53:49.441Z,2.75
2022-09-12T18:56:16.158Z,2.80
2022-09-12T18:58:43.881Z,4.55
2022-09-12T19:01:15.705Z,3.25
2022-09-12T19:03:42.374Z,5.78
2022-09-12T19:06:11.697Z,2.88
2022-09-12T19:08:39.012Z,3.37
2022-09-12T19:11:05.837Z,3.20
2022-09-12T19:13:35.870Z,2.97
2022-09-12T19:16:04.067Z,3.00
2022-09-12T19:18:31.526Z,3.03
2022-09-12T19:20:58.038Z,5.13
2022-09-12T19:23:24.613Z,4.57
2022-09-12T19:25:58.932Z,3.58
2022-09-12T19:28:26.608Z,3.38
2022-09-12T19:30:53.789Z,4.75
2022-09-12T19:33:21.075Z,4.50
2022-09-12T19:35:47.966Z,4.00
2022-09-12T19:38:14.905Z,4.35
2022-09-12T19:40:43.217Z,5.35
2022-09-12T19:43:10.242Z,5.13
2022-09-12T19:45:37.143Z,4.53
2022-09-12T19:48:03.752Z,5.07
2022-09-12T19:50:33.708Z,3.70
2022-09-12T19:53:00.344Z,7.43
2022-09-12T19:55:26.848Z,5.63
2022-09-12T19:57:54.331Z,5.87
2022-09-12T20:00:20.956Z,9.40
2022-09-12T20:02:51.785Z,5.05
2022-09-12T20:05:19.922Z,6.65
2022-09-12T20:07:46.992Z,5.25
2022-09-12T20:10:14.278Z,8.20
2022-09-12T20:12:41.547Z,4.40
2022-09-12T20:15:08.773Z,4.47
2022-09-12T20:17:36.105Z,4.60
2022-09-12T20:20:02.779Z,4.05
2022-09-12T20:22:29.325Z,5.43
2022-09-12T20:24:56.192Z,4.22
2022-09-12T20:27:23.119Z,5.47
2022-09-12T20:29:49.691Z,3.70
2022-09-12T20:32:18.253Z,5.82
2022-09-12T20:34:44.692Z,4.50
2022-09-12T20:37:11.617Z,4.18
2022-09-12T20:39:38.251Z,4.05
2022-09-12T20:42:05.096Z,5.47
2022-09-12T20:44:31.621Z,4.55
2022-09-12T20:46:58.306Z,4.70
2022-09-12T20:49:24.899Z,4.22
2022-09-12T20:51:52.627Z,5.43
2022-09-12T20:54:19.173Z,4.47
2022-09-12T20:56:45.856Z,4.25
2022-09-12T20:59:13.005Z,10.97
2022-09-12T21:01:39.807Z,4.20
2022-09-12T21:04:06.328Z,4.40
2022-09-12T21:06:33.049Z,4.30
2022-09-12T21:09:00.823Z,4.40
2022-09-12T21:11:28.629Z,6.43
2022-09-12T21:13:55.244Z,4.20
2022-09-12T21:16:26.394Z,4.80
2022-09-12T21:18:57.154Z,4.70
2022-09-12T21:21:23.780Z,4.90
2022-09-12T21:23:51.497Z,4.17
2022-09-12T21:26:18.465Z,5.28
2022-09-12T21:28:46.685Z,4.68
2022-09-12T21:31:13.918Z,5.57
2022-09-12T21:33:42.158Z,4.65
2022-09-12T21:36:10.493Z,4.27
2022-09-12T21:38:37.820Z,7.13
2022-09-12T21:41:09.431Z,4.22
2022-09-12T21:43:36.653Z,4.18
2022-09-12T21:46:04.973Z,4.22
2022-09-12T21:48:32.062Z,3.53
2022-09-12T21:50:58.769Z,4.65
2022-09-12T21:53:25.708Z,4.45
2022-09-12T21:55:52.406Z,4.03
2022-09-12T21:58:19.299Z,4.03
2022-09-12T22:00:46.010Z,5.87
2022-09-12T22:03:13.183Z,9.45
2022-09-12T22:05:43.263Z,4.13
2022-09-12T22:08:11.524Z,4.43
2022-09-12T22:10:40.649Z,4.47
2022-09-12T22:13:07.273Z,4.17
2022-09-12T22:15:40.497Z,3.65
2022-09-12T22:18:07.881Z,3.88
2022-09-12T22:20:34.319Z,5.00
2022-09-12T22:23:24.329Z,4.95
2022-09-12T22:25:54.350Z,3.50
2022-09-12T22:28:21.410Z,3.67
2022-09-12T22:30:48.598Z,4.65
2022-09-12T22:33:15.601Z,5.65
2022-09-12T22:35:44.686Z,4.10
2022-09-12T22:38:11.381Z,3.87
2022-09-12T22:40:38.521Z,7.72
2022-09-12T22:43:05.211Z,4.30
2022-09-12T22:45:32.764Z,5.25
2022-09-12T22:48:01.031Z,4.03
2022-09-12T22:50:27.904Z,3.80
2022-09-12T22:52:54.355Z,5.35
2022-09-12T22:55:20.930Z,4.72
2022-09-12T22:57:47.798Z,5.53
2022-09-12T23:00:15.222Z,4.20
2022-09-12T23:02:41.806Z,3.80
2022-09-12T23:05:08.784Z,5.28
2022-09-12T23:07:35.868Z,4.80
2022-09-12T23:10:02.757Z,4.40
2022-09-12T23:12:29.644Z,4.85
2022-09-12T23:14:56.645Z,4.37
2022-09-12T23:17:23.261Z,6.72
2022-09-12T23:19:49.726Z,5.00
2022-09-12T23:22:16.530Z,6.43
2022-09-12T23:24:43.177Z,5.88
2022-09-12T23:27:09.807Z,7.77
2022-09-12T23:29:36.417Z,6.07
2022-09-12T23:32:03.902Z,5.47
2022-09-12T23:34:31.006Z,6.10
2022-09-12T23:36:57.694Z,6.18
2022-09-12T23:39:24.264Z,5.60
2022-09-12T23:41:50.781Z,6.00
2022-09-12T23:44:17.321Z,6.97
2022-09-12T23:46:44.007Z,5.07
2022-09-12T23:49:10.554Z,6.50
2022-09-12T23:51:37.217Z,6.57
2022-09-12T23:54:04.459Z,7.10
2022-09-12T23:56:31.002Z,8.38
2022-09-12T23:58:58.919Z,6.20
